Time;durP1;ratioP1;P1;durP2;ratioP2;P2;SDS_P1;SDS_P2;PMS_P1;PMS_P2;Temp;Humidity;BMP_temperature;BMP_pressure;BME280_temperature;BME280_humidity;BME280_pressure;Samples;Min_cycle;Max_cycle;Signal;HPM_P1;HPM_P2
2022/03/13 00:01:40;;;;;;;43.03;14.82;;;;;;;-0.13;41.14;100260.25;8426512;28;20109;-71
2022/03/13 00:05:42;;;;;;;41.20;14.80;;;;;;;-0.10;40.73;100260.63;8445504;28;20043;-71
2022/03/13 00:09:45;;;;;;;40.67;15.05;;;;;;;-0.14;40.84;100255.97;8493504;27;20539;-70
2022/03/13 00:13:51;;;;;;;41.78;15.07;;;;;;;-0.18;40.84;100257.41;8455533;28;20069;-71
2022/03/13 00:17:52;;;;;;;40.10;15.13;;;;;;;-0.25;40.98;100248.66;8430119;28;20369;-71
2022/03/13 00:21:54;;;;;;;36.83;13.40;;;;;;;-0.27;41.00;100253.38;8428111;28;20048;-72
2022/03/13 00:25:55;;;;;;;53.88;16.55;;;;;;;-0.29;41.24;100244.78;8455493;28;20077;-71
2022/03/13 00:29:56;;;;;;;42.88;14.75;;;;;;;-0.33;40.99;100243.59;8445559;28;20040;-71
2022/03/13 00:33:56;;;;;;;41.80;14.07;;;;;;;-0.35;41.14;100240.31;8440360;28;20043;-71
2022/03/13 00:37:58;;;;;;;49.35;15.23;;;;;;;-0.38;41.46;100240.75;8460106;28;20138;-72
2022/03/13 00:41:58;;;;;;;43.42;14.27;;;;;;;-0.42;41.45;100240.34;8457661;28;20027;-71
2022/03/13 00:46:00;;;;;;;40.90;14.75;;;;;;;-0.42;41.10;100243.81;8442964;28;20085;-71
2022/03/13 00:50:01;;;;;;;39.15;14.18;;;;;;;-0.48;41.31;100241.19;8474690;28;20100;-71
2022/03/13 00:54:02;;;;;;;45.40;15.25;;;;;;;-0.49;41.43;100240.38;8469309;27;20095;-70
2022/03/13 00:58:03;;;;;;;45.28;15.95;;;;;;;-0.50;41.86;100238.75;8460077;28;20221;-71
2022/03/13 01:02:05;;;;;;;47.38;14.82;;;;;;;-0.55;41.67;100238.56;8465323;28;20047;-71
2022/03/13 01:06:07;;;;;;;49.42;16.40;;;;;;;-0.57;42.02;100237.94;8448446;28;20509;-71
2022/03/13 01:10:09;;;;;;;45.95;14.88;;;;;;;-0.61;41.77;100234.09;8466326;27;20130;-71
2022/03/13 01:14:10;;;;;;;42.97;14.77;;;;;;;-0.64;42.26;100231.84;8464715;28;20085;-71
2022/03/13 01:18:11;;;;;;;37.05;13.38;;;;;;;-0.69;41.77;100234.31;8451173;28;20058;-70
2022/03/13 01:22:12;;;;;;;41.53;14.05;;;;;;;-0.65;42.21;100219.63;8433211;28;20040;-71
2022/03/13 01:26:22;;;;;;;39.33;14.05;;;;;;;-0.72;42.30;100213.50;8443066;28;20060;-71
2022/03/13 01:30:23;;;;;;;39.33;14.27;;;;;;;-0.75;42.63;100208.63;8464779;28;20051;-71
2022/03/13 01:34:36;;;;;;;41.13;14.77;;;;;;;-0.70;42.24;100211.47;8448059;28;20051;-72
2022/03/13 01:38:36;;;;;;;37.00;14.25;;;;;;;-0.76;42.45;100209.63;8439901;28;20396;-71
2022/03/13 01:42:44;;;;;;;43.42;14.27;;;;;;;-0.75;42.53;100213.09;8446807;28;20058;-71
2022/03/13 01:46:45;;;;;;;46.33;13.85;;;;;;;-0.82;42.51;100215.78;8431883;28;20056;-71
2022/03/13 01:50:49;;;;;;;43.78;14.48;;;;;;;-0.88;42.79;100211.28;8431900;28;20055;-70
2022/03/13 01:54:50;;;;;;;39.63;13.68;;;;;;;-0.93;42.62;100216.41;8453057;28;20414;-71
2022/03/13 01:58:54;;;;;;;45.13;14.05;;;;;;;-1.00;43.22;100215.59;8498086;27;20100;-72
2022/03/13 02:02:54;;;;;;;45.08;15.10;;;;;;;-1.03;43.43;100202.75;8464413;28;20097;-70
2022/03/13 02:06:56;;;;;;;49.13;15.00;;;;;;;-1.08;43.76;100198.09;8464185;28;20447;-70
2022/03/13 02:10:57;;;;;;;36.85;14.20;;;;;;;-1.11;43.77;100208.28;8464366;28;20418;-71
2022/03/13 02:14:58;;;;;;;46.72;14.52;;;;;;;-1.16;43.94;100192.97;8456342;28;20461;-73
2022/03/13 02:18:59;;;;;;;49.55;13.70;;;;;;;-1.15;44.46;100191.16;8464443;28;20104;-71
2022/03/13 02:23:01;;;;;;;44.13;13.55;;;;;;;-1.16;44.44;100192.19;8462472;27;20077;-72
2022/03/13 02:27:04;;;;;;;50.58;16.58;;;;;;;-1.18;44.60;100202.16;8460383;28;20046;-71
2022/03/13 02:31:11;;;;;;;49.60;15.60;;;;;;;-1.19;44.91;100200.53;8438436;28;20040;-71
2022/03/13 02:35:12;;;;;;;39.78;14.05;;;;;;;-1.22;44.66;100195.66;8434831;28;20055;-71
2022/03/13 02:39:14;;;;;;;48.45;16.55;;;;;;;-1.22;45.07;100185.06;8430269;28;20067;-72
2022/03/13 02:43:16;;;;;;;47.78;16.00;;;;;;;-1.23;44.87;100183.41;8470599;27;20043;-71
2022/03/13 02:47:17;;;;;;;49.47;15.40;;;;;;;-1.27;45.34;100176.91;8463379;28;20502;-71
2022/03/13 02:51:18;;;;;;;46.58;16.20;;;;;;;-1.30;45.30;100178.94;8463731;28;20085;-71
2022/03/13 02:55:19;;;;;;;47.13;16.05;;;;;;;-1.33;45.51;100179.38;8435968;28;20438;-72
2022/03/13 02:59:20;;;;;;;52.70;16.67;;;;;;;-1.37;45.98;100178.13;8449654;28;20051;-71
2022/03/13 03:03:21;;;;;;;45.15;14.93;;;;;;;-1.40;45.59;100167.94;8444129;28;20048;-72
2022/03/13 03:07:22;;;;;;;50.92;16.17;;;;;;;-1.46;45.92;100174.06;8436785;28;20104;-73
2022/03/13 03:11:23;;;;;;;49.83;16.65;;;;;;;-1.49;46.60;100179.78;8485561;27;20563;-72
2022/03/13 03:15:25;;;;;;;48.22;15.57;;;;;;;-1.53;46.65;100177.72;8441259;28;20040;-71
2022/03/13 03:19:26;;;;;;;50.45;15.95;;;;;;;-1.59;46.30;100184.66;8452328;28;20387;-70
2022/03/13 03:23:27;;;;;;;44.83;16.55;;;;;;;-1.65;46.93;100180.19;8462421;28;20555;-71
2022/03/13 03:27:30;;;;;;;45.83;16.17;;;;;;;-1.62;46.81;100179.75;8461982;28;20510;-72
2022/03/13 03:31:31;;;;;;;42.90;15.05;;;;;;;-1.63;46.61;100178.13;8454017;28;20051;-72
2022/03/13 03:35:32;;;;;;;46.25;15.50;;;;;;;-1.69;47.41;100178.94;8435670;28;20476;-71
2022/03/13 03:39:33;;;;;;;50.70;15.68;;;;;;;-1.72;47.16;100179.34;8444322;28;20051;-71
2022/03/13 03:43:35;;;;;;;42.53;15.32;;;;;;;-1.70;47.06;100187.91;8442181;28;20551;-71
2022/03/13 03:47:35;;;;;;;45.20;15.43;;;;;;;-1.76;47.07;100188.72;8459636;28;20093;-71
2022/03/13 03:51:38;;;;;;;49.42;16.55;;;;;;;-1.76;47.37;100188.72;8458779;28;20046;-70
2022/03/13 03:55:39;;;;;;;48.47;16.83;;;;;;;-1.73;47.06;100188.31;8438339;28;20043;-71
2022/03/13 03:59:40;;;;;;;42.53;14.55;;;;;;;-1.77;47.27;100176.50;8459867;28;20048;-72
2022/03/13 04:03:40;;;;;;;45.33;15.85;;;;;;;-1.73;47.44;100193.59;8434718;28;20578;-71
2022/03/13 04:07:42;;;;;;;45.88;15.30;;;;;;;-1.68;47.03;100188.50;8443080;28;20052;-71
2022/03/13 04:11:43;;;;;;;45.03;14.75;;;;;;;-1.74;47.36;100181.38;8457559;28;20048;-70
2022/03/13 04:15:44;;;;;;;49.28;15.77;;;;;;;-1.76;47.22;100183.44;8451013;28;20048;-71
2022/03/13 04:19:45;;;;;;;46.28;15.48;;;;;;;-1.82;47.50;100178.94;8483466;27;20051;-71
2022/03/13 04:23:46;;;;;;;49.95;15.43;;;;;;;-1.80;47.61;100182.22;8448448;28;20381;-71
2022/03/13 04:27:47;;;;;;;46.53;15.70;;;;;;;-1.81;47.69;100185.88;8461475;27;20052;-72
2022/03/13 04:31:48;;;;;;;47.67;16.35;;;;;;;-1.83;47.80;100187.91;8460250;28;20046;-71
2022/03/13 04:35:49;;;;;;;50.83;16.65;;;;;;;-1.84;48.17;100184.44;8460480;28;20040;-70
2022/03/13 04:39:51;;;;;;;48.28;14.38;;;;;;;-1.85;48.25;100184.66;8424282;28;20048;-71
2022/03/13 04:43:53;;;;;;;48.05;17.35;;;;;;;-1.90;48.17;100184.41;8460494;28;20079;-71
2022/03/13 04:47:54;;;;;;;41.03;14.98;;;;;;;-1.97;48.25;100192.38;8459246;28;20051;-70
2022/03/13 04:51:55;;;;;;;48.75;16.48;;;;;;;-1.95;48.64;100189.50;8456443;28;20116;-71
2022/03/13 04:55:56;;;;;;;49.72;14.88;;;;;;;-1.92;48.44;100189.13;8427057;28;20343;-72
2022/03/13 04:59:57;;;;;;;47.08;15.02;;;;;;;-1.92;48.79;100183.81;8441555;28;20419;-70
2022/03/13 05:03:58;;;;;;;42.55;15.05;;;;;;;-1.88;48.04;100179.75;8426626;28;20052;-71
2022/03/13 05:07:58;;;;;;;46.03;15.05;;;;;;;-1.89;47.90;100189.50;8439226;28;20115;-71
2022/03/13 05:12:04;;;;;;;41.40;14.27;;;;;;;-1.88;47.90;100195.63;8457429;28;20062;-71
2022/03/13 05:16:05;;;;;;;42.53;14.73;;;;;;;-1.82;47.63;100197.47;8455748;28;20061;-71
2022/03/13 05:20:08;;;;;;;41.17;14.82;;;;;;;-1.74;47.52;100197.25;8455991;28;20543;-71
2022/03/13 05:24:09;;;;;;;45.80;15.13;;;;;;;-1.74;47.39;100198.09;8455859;28;20056;-71
2022/03/13 05:28:10;;;;;;;38.58;13.63;;;;;;;-1.69;46.95;100205.41;8455400;28;20055;-71
2022/03/13 05:32:11;;;;;;;43.80;13.98;;;;;;;-1.67;46.92;100203.41;8462327;28;20054;-72
2022/03/13 05:36:13;;;;;;;39.80;15.32;;;;;;;-1.62;46.84;100216.03;8489481;28;20043;-71
2022/03/13 05:40:16;;;;;;;36.72;14.65;;;;;;;-1.53;46.65;100223.56;8489583;27;20129;-72
2022/03/13 05:44:17;;;;;;;41.08;14.15;;;;;;;-1.51;46.28;100218.91;8459282;28;20514;-71
2022/03/13 05:48:18;;;;;;;35.13;13.07;;;;;;;-1.52;46.39;100211.97;8411171;27;20046;-72
2022/03/13 05:52:20;;;;;;;39.40;13.85;;;;;;;-1.52;46.87;100214.59;8451655;27;20055;-71
2022/03/13 05:56:21;;;;;;;38.80;13.98;;;;;;;-1.53;47.07;100215.63;8431764;28;20488;-71
2022/03/13 06:00:24;;;;;;;43.65;14.50;;;;;;;-1.48;47.01;100218.47;8412260;28;20044;-70
2022/03/13 06:04:26;;;;;;;32.38;12.68;;;;;;;-1.43;46.85;100216.03;8431675;28;20052;-71
2022/03/13 06:08:27;;;;;;;37.70;13.13;;;;;;;-1.35;46.50;100218.50;8431007;28;20048;-71
2022/03/13 06:12:30;;;;;;;36.10;11.68;;;;;;;-1.24;46.42;100224.19;8431103;28;20479;-72
2022/03/13 06:16:31;;;;;;;39.03;13.45;;;;;;;-1.10;46.13;100225.81;8462452;28;20066;-71
2022/03/13 06:20:32;;;;;;;33.88;12.40;;;;;;;-1.00;45.88;100242.09;8441762;28;20052;-71
2022/03/13 06:24:34;;;;;;;31.27;12.45;;;;;;;-0.90;45.26;100242.53;8444499;28;20059;-70
2022/03/13 06:28:36;;;;;;;42.60;15.10;;;;;;;-0.77;45.29;100247.78;8464934;28;20056;-71
2022/03/13 06:32:37;;;;;;;41.33;15.35;;;;;;;-0.69;44.78;100244.94;8471542;27;20050;-71
2022/03/13 06:36:39;;;;;;;36.90;13.25;;;;;;;-0.59;44.99;100245.31;8464937;28;20048;-71
2022/03/13 06:40:40;;;;;;;34.55;11.75;;;;;;;-0.43;44.24;100250.16;8464802;28;20658;-71
2022/03/13 06:44:41;;;;;;;35.67;13.07;;;;;;;-0.28;44.01;100251.75;8448420;27;20130;-73
2022/03/13 06:48:42;;;;;;;36.88;12.85;;;;;;;-0.14;43.87;100258.63;8452191;28;20040;-71
2022/03/13 06:52:45;;;;;;;31.65;11.63;;;;;;;0.08;42.85;100251.97;8447795;28;20483;-72
2022/03/13 06:56:48;;;;;;;32.83;12.90;;;;;;;0.29;42.61;100259.63;8466962;27;20138;-71
2022/03/13 07:00:50;;;;;;;31.77;11.90;;;;;;;0.48;41.86;100251.75;8464320;28;20713;-71
2022/03/13 07:04:51;;;;;;;35.17;11.48;;;;;;;0.64;41.70;100264.47;8463921;28;20439;-70
2022/03/13 07:08:52;;;;;;;34.15;11.95;;;;;;;0.80;41.22;100258.63;8465570;27;20108;-70
2022/03/13 07:12:55;;;;;;;36.85;12.63;;;;;;;1.03;41.03;100261.53;8462893;28;20550;-71
2022/03/13 07:16:56;;;;;;;32.75;12.77;;;;;;;1.14;41.03;100263.47;8462775;28;20055;-71
2022/03/13 07:20:57;;;;;;;34.65;12.40;;;;;;;1.26;40.36;100256.41;8463928;27;20055;-73
2022/03/13 07:24:58;;;;;;;31.13;11.75;;;;;;;1.44;39.80;100252.09;8476605;27;20506;-72
2022/03/13 07:29:02;;;;;;;30.55;11.40;;;;;;;1.59;40.19;100260.53;8495140;27;20047;-72
2022/03/13 07:33:03;;;;;;;30.50;10.07;;;;;;;1.76;39.44;100258.91;8482558;27;20092;-73
2022/03/13 07:37:05;;;;;;;33.03;11.50;;;;;;;1.96;39.25;100262.13;8491146;27;20096;-72
2022/03/13 07:41:05;;;;;;;31.65;11.90;;;;;;;2.16;39.06;100261.09;8496417;27;20054;-73
2022/03/13 07:45:07;;;;;;;33.10;11.55;;;;;;;2.39;37.89;100255.81;8483850;27;20039;-70
2022/03/13 07:49:08;;;;;;;26.00;10.60;;;;;;;2.57;37.91;100263.78;8442555;28;20044;-72
2022/03/13 07:53:09;;;;;;;30.88;11.95;;;;;;;2.70;37.91;100263.56;8461652;28;20055;-72
2022/03/13 07:57:10;;;;;;;34.05;10.55;;;;;;;2.90;37.02;100269.41;8487107;27;20072;-73
2022/03/13 08:01:12;;;;;;;25.77;10.63;;;;;;;3.03;36.46;100264.88;8495562;27;20057;-73
2022/03/13 08:05:18;;;;;;;26.63;10.52;;;;;;;3.17;36.59;100263.63;8494843;27;20043;-72
2022/03/13 08:09:19;;;;;;;31.80;12.57;;;;;;;3.25;36.87;100268.59;8493228;27;20064;-71
2022/03/13 08:13:20;;;;;;;22.58;9.98;;;;;;;3.47;35.73;100266.97;8476479;27;20039;-75
2022/03/13 08:17:21;;;;;;;31.35;11.82;;;;;;;3.62;35.67;100261.94;8436685;27;20101;-72
2022/03/13 08:21:22;;;;;;;27.15;10.20;;;;;;;3.73;34.91;100262.97;8491706;27;20047;-71
2022/03/13 08:25:25;;;;;;;35.00;11.40;;;;;;;3.91;34.78;100264.69;8475923;27;20054;-73
2022/03/13 08:29:25;;;;;;;25.88;10.60;;;;;;;3.94;35.08;100264.19;8486861;27;20047;-69
2022/03/13 08:33:26;;;;;;;29.38;10.52;;;;;;;4.16;34.71;100262.50;8453516;27;20059;-69
2022/03/13 08:37:27;;;;;;;28.52;10.63;;;;;;;4.39;34.23;100257.03;8464944;27;20053;-68
2022/03/13 08:41:28;;;;;;;28.15;11.00;;;;;;;4.46;34.03;100260.38;8474044;27;20124;-74
2022/03/13 08:45:29;;;;;;;29.73;11.23;;;;;;;4.58;33.90;100255.78;8448434;28;20048;-69
2022/03/13 08:49:30;;;;;;;26.58;11.20;;;;;;;4.73;34.32;100257.09;8443948;28;20505;-71
2022/03/13 08:53:31;;;;;;;33.13;12.40;;;;;;;4.98;33.95;100252.16;8445156;28;20044;-69
2022/03/13 08:57:32;;;;;;;32.33;11.63;;;;;;;5.00;33.65;100255.41;8427584;28;20052;-70
2022/03/13 09:01:33;;;;;;;34.30;12.25;;;;;;;5.16;33.62;100246.53;8427518;28;20079;-72
2022/03/13 09:05:35;;;;;;;34.22;12.57;;;;;;;5.21;33.39;100249.28;8445391;28;20143;-69
2022/03/13 09:09:36;;;;;;;29.60;12.25;;;;;;;5.29;33.12;100251.53;8429670;28;20404;-71
2022/03/13 09:13:37;;;;;;;31.17;12.75;;;;;;;5.52;33.10;100245.97;8467093;27;20520;-71
2022/03/13 09:17:38;;;;;;;23.55;10.25;;;;;;;5.67;32.42;100247.22;8464772;28;20100;-71
2022/03/13 09:21:39;;;;;;;27.17;10.73;;;;;;;5.94;31.58;100256.19;8465695;28;20131;-72
2022/03/13 09:25:40;;;;;;;27.38;11.63;;;;;;;6.11;31.28;100254.25;8466449;28;20131;-69
2022/03/13 09:29:42;;;;;;;29.83;13.80;;;;;;;6.27;30.57;100258.72;8431074;28;20491;-70
2022/03/13 09:33:43;;;;;;;27.55;11.63;;;;;;;6.32;30.49;100255.28;8448906;28;20052;-69
2022/03/13 09:37:44;;;;;;;28.95;13.20;;;;;;;6.47;30.58;100246.56;8448528;28;20474;-71
2022/03/13 09:41:45;;;;;;;27.92;11.43;;;;;;;6.64;30.01;100248.06;8495879;27;20116;-72
2022/03/13 09:45:46;;;;;;;25.20;11.00;;;;;;;6.89;29.01;100250.16;8423070;28;20151;-70
2022/03/13 09:49:48;;;;;;;27.48;11.73;;;;;;;6.95;29.12;100237.56;8444772;28;20055;-71
2022/03/13 09:53:49;;;;;;;28.08;11.82;;;;;;;7.16;29.64;100250.91;8458946;28;20051;-70
2022/03/13 09:57:52;;;;;;;29.15;11.63;;;;;;;7.24;29.17;100246.13;8462384;28;20135;-70
2022/03/13 10:01:53;;;;;;;22.35;10.70;;;;;;;7.30;28.78;100242.38;8461514;28;20047;-72
2022/03/13 10:05:55;;;;;;;26.73;10.90;;;;;;;7.36;28.73;100250.22;8461902;28;20044;-71
2022/03/13 10:10:06;;;;;;;29.75;11.38;;;;;;;7.52;28.58;100253.81;8460496;28;20117;-71
2022/03/13 10:14:10;;;;;;;27.70;12.05;;;;;;;7.68;28.54;100247.44;8485547;27;20130;-72
2022/03/13 10:18:21;;;;;;;31.52;14.60;;;;;;;7.76;28.06;100249.63;8456134;28;20044;-72
2022/03/13 10:22:29;;;;;;;22.02;10.55;;;;;;;7.71;28.09;100255.00;8487687;27;20141;-71
2022/03/13 10:26:31;;;;;;;26.27;11.70;;;;;;;7.89;28.21;100253.72;8463901;27;20067;-72
2022/03/13 10:30:36;;;;;;;26.45;11.20;;;;;;;8.07;27.98;100245.19;8473694;27;20163;-72
2022/03/13 10:34:38;;;;;;;26.55;11.13;;;;;;;8.19;27.97;100247.63;8451848;27;20046;-72
2022/03/13 10:38:39;;;;;;;23.83;10.77;;;;;;;8.35;27.69;100262.78;8434840;28;20055;-71
2022/03/13 10:42:43;;;;;;;36.22;14.30;;;;;;;8.40;27.93;100254.72;8464912;27;20134;-73
2022/03/13 10:46:46;;;;;;;44.78;18.10;;;;;;;8.54;27.67;100245.03;8482037;27;20066;-73
2022/03/13 10:50:51;;;;;;;40.13;16.48;;;;;;;8.56;27.88;100250.97;8464535;27;20047;-73
2022/03/13 10:54:57;;;;;;;58.97;22.42;;;;;;;8.68;27.86;100240.75;8474384;27;20119;-73
2022/03/13 10:58:59;;;;;;;34.65;14.25;;;;;;;8.76;27.89;100248.28;8452698;27;20780;-72
2022/03/13 11:03:14;;;;;;;29.27;12.35;;;;;;;8.77;27.69;100249.91;8443717;28;20762;-70
2022/03/13 11:07:15;;;;;;;61.08;20.63;;;;;;;8.88;28.05;100240.75;8410602;28;20056;-74
2022/03/13 11:11:18;;;;;;;34.13;14.02;;;;;;;8.84;27.54;100239.66;8429570;28;20058;-71
2022/03/13 11:15:20;;;;;;;27.73;12.32;;;;;;;9.02;28.05;100237.50;8454048;28;20050;-70
2022/03/13 11:19:21;;;;;;;27.77;11.57;;;;;;;9.16;27.23;100228.59;8432588;28;20487;-73
2022/03/13 11:23:22;;;;;;;28.52;12.35;;;;;;;9.24;27.49;100232.63;8460746;28;20056;-70
2022/03/13 11:27:25;;;;;;;29.73;12.93;;;;;;;9.28;27.50;100228.31;8457869;28;20100;-72
2022/03/13 11:31:36;;;;;;;28.98;12.10;;;;;;;9.40;27.43;100228.84;8440445;27;20039;-70
2022/03/13 11:35:37;;;;;;;31.40;12.73;;;;;;;9.54;27.17;100219.06;8491601;27;20047;-70
2022/03/13 11:39:38;;;;;;;33.00;12.82;;;;;;;9.63;27.03;100219.31;8458730;27;20043;-71
2022/03/13 11:43:39;;;;;;;32.35;13.73;;;;;;;9.70;25.97;100225.22;8458659;28;20063;-69
2022/03/13 11:47:40;;;;;;;25.20;11.57;;;;;;;9.78;25.93;100210.38;8461306;27;20043;-71
2022/03/13 11:51:45;;;;;;;31.08;12.52;;;;;;;9.82;26.12;100211.44;8492263;27;20744;-71
2022/03/13 11:56:05;;;;;;;27.15;12.77;;;;;;;9.94;26.23;100210.00;8492299;27;20173;-72
2022/03/13 12:00:15;;;;;;;28.77;12.48;;;;;;;10.02;25.55;100206.75;8457671;27;20109;-70
2022/03/13 12:04:16;;;;;;;31.52;12.88;;;;;;;10.07;25.79;100209.41;8488599;27;20056;-70
2022/03/13 12:08:21;;;;;;;32.70;13.88;;;;;;;10.18;25.69;100201.28;8461719;28;20130;-71
2022/03/13 12:12:22;;;;;;;28.33;11.90;;;;;;;10.30;25.25;100197.16;8462194;28;20057;-70
2022/03/13 12:16:23;;;;;;;32.28;14.25;;;;;;;10.45;25.53;100199.75;8461742;28;20466;-71
2022/03/13 12:20:26;;;;;;;31.60;12.77;;;;;;;10.51;25.33;100193.22;8461902;28;20051;-71
2022/03/13 12:24:30;;;;;;;34.97;14.25;;;;;;;10.58;25.23;100193.69;8461805;28;20060;-70
2022/03/13 12:28:33;;;;;;;27.92;13.50;;;;;;;10.73;25.07;100183.88;8460250;28;20151;-71
2022/03/13 12:32:34;;;;;;;30.17;12.98;;;;;;;10.85;24.40;100181.59;8461467;28;20047;-70
2022/03/13 12:36:37;;;;;;;34.53;13.07;;;;;;;10.87;24.16;100174.81;8460934;28;20487;-72
2022/03/13 12:40:47;;;;;;;33.08;13.40;;;;;;;11.00;24.28;100184.16;8440010;28;20055;-72
2022/03/13 12:45:03;;;;;;;37.85;16.85;;;;;;;11.11;24.61;100174.84;8459707;28;20055;-72
2022/03/13 12:49:07;;;;;;;31.58;13.18;;;;;;;11.11;23.67;100164.03;8458898;28;20081;-72
2022/03/13 12:53:08;;;;;;;29.58;12.18;;;;;;;11.10;22.90;100162.44;8466552;28;20043;-71
2022/03/13 12:57:09;;;;;;;31.25;12.82;;;;;;;11.13;22.97;100166.47;8480462;27;20752;-72
2022/03/13 13:01:19;;;;;;;22.55;11.00;;;;;;;11.14;23.38;100166.19;8467887;28;20079;-72
2022/03/13 13:05:19;;;;;;;29.88;13.40;;;;;;;11.24;23.80;100163.38;8467892;28;20056;-71
2022/03/13 13:09:41;;;;;;;28.00;12.27;;;;;;;11.35;23.30;100175.69;8467610;28;20180;-70
2022/03/13 13:13:42;;;;;;;29.67;11.77;;;;;;;11.34;23.37;100157.84;8466400;27;20047;-71
2022/03/13 13:17:49;;;;;;;28.95;12.43;;;;;;;11.38;23.52;100158.88;8458359;27;20085;-71
2022/03/13 13:21:56;;;;;;;28.75;12.93;;;;;;;11.38;23.69;100153.47;8475589;27;20040;-72
2022/03/13 13:25:58;;;;;;;26.25;12.20;;;;;;;11.76;23.97;100148.16;8466828;27;20510;-71
2022/03/13 13:30:22;;;;;;;27.10;12.27;;;;;;;12.73;21.59;100145.59;8417594;28;20052;-70
2022/03/13 13:34:26;;;;;;;24.88;12.45;;;;;;;13.85;20.84;100153.16;8411341;27;20060;-71
2022/03/13 13:38:31;;;;;;;26.73;12.00;;;;;;;14.73;20.02;100148.97;8438324;27;20071;-71
2022/03/13 13:42:35;;;;;;;29.50;13.18;;;;;;;15.51;19.08;100147.41;8454447;27;20049;-71
2022/03/13 13:46:36;;;;;;;28.33;11.57;;;;;;;16.25;18.97;100149.28;8463584;27;20059;-73
2022/03/13 13:50:37;;;;;;;25.75;12.07;;;;;;;17.23;17.19;100136.44;8448340;27;20096;-72
2022/03/13 13:54:38;;;;;;;21.30;11.60;;;;;;;18.36;17.50;100161.13;8459048;27;20560;-70
2022/03/13 13:58:39;;;;;;;24.35;11.82;;;;;;;19.53;15.55;100148.81;8482764;27;20044;-72
2022/03/13 14:02:50;;;;;;;23.33;12.07;;;;;;;19.18;15.99;100160.19;8463907;27;20056;-72
2022/03/13 14:06:53;;;;;;;21.93;10.93;;;;;;;18.88;15.65;100156.78;8456038;27;20052;-71
2022/03/13 14:10:54;;;;;;;22.80;11.80;;;;;;;19.33;15.44;100156.75;8446009;27;20052;-71
2022/03/13 14:14:55;;;;;;;21.60;11.48;;;;;;;20.50;14.61;100148.63;8451038;27;20131;-71
2022/03/13 14:18:57;;;;;;;23.35;11.52;;;;;;;20.09;14.96;100160.75;8451449;27;20480;-71
2022/03/13 14:22:58;;;;;;;24.88;11.98;;;;;;;20.62;14.63;100152.09;8459623;27;20052;-73
2022/03/13 14:26:59;;;;;;;21.35;10.90;;;;;;;20.62;14.56;100156.81;8454592;27;20082;-73
2022/03/13 14:31:00;;;;;;;22.30;11.13;;;;;;;21.09;13.82;100148.66;8465208;27;20055;-72
2022/03/13 14:35:02;;;;;;;21.65;11.50;;;;;;;20.41;14.58;100148.75;8454655;27;20093;-73
2022/03/13 14:39:03;;;;;;;21.85;12.27;;;;;;;21.03;13.68;100150.06;8447609;27;20056;-72
2022/03/13 14:43:05;;;;;;;25.88;13.10;;;;;;;21.45;13.31;100145.66;8453684;27;20499;-73
2022/03/13 14:47:07;;;;;;;24.95;13.93;;;;;;;20.82;13.85;100149.50;8454493;27;20100;-73
2022/03/13 14:51:09;;;;;;;30.33;15.38;;;;;;;20.26;14.31;100143.97;8465811;27;20040;-72
2022/03/13 14:55:14;;;;;;;26.58;12.93;;;;;;;20.53;14.16;100148.72;8455911;27;20050;-74
2022/03/13 14:59:18;;;;;;;32.47;15.57;;;;;;;20.42;14.24;100147.63;8448760;27;20061;-72
2022/03/13 15:03:20;;;;;;;27.58;13.80;;;;;;;20.34;14.16;100143.09;8443615;27;20044;-73
2022/03/13 15:07:21;;;;;;;27.23;13.27;;;;;;;20.91;14.35;100152.88;8441665;27;20079;-72
2022/03/13 15:11:22;;;;;;;26.30;13.95;;;;;;;20.91;14.24;100158.38;8477820;27;20054;-79
2022/03/13 15:15:23;;;;;;;25.50;12.98;;;;;;;20.97;14.37;100152.28;8453418;27;20139;-85
2022/03/13 15:19:24;;;;;;;27.45;13.30;;;;;;;20.89;14.10;100149.66;8434050;28;20428;-74
2022/03/13 15:23:25;;;;;;;25.30;13.40;;;;;;;20.85;14.54;100143.28;8462197;28;20056;-73
2022/03/13 15:27:27;;;;;;;26.30;13.63;;;;;;;19.39;14.82;100143.66;8481558;27;20415;-72
2022/03/13 15:31:28;;;;;;;24.98;13.35;;;;;;;18.08;16.18;100139.78;8445419;28;20052;-72
2022/03/13 15:35:29;;;;;;;28.00;12.82;;;;;;;16.33;17.16;100138.41;8463355;27;20056;-72
2022/03/13 15:39:31;;;;;;;25.13;13.40;;;;;;;15.32;18.03;100138.69;8434582;28;20074;-71
2022/03/13 15:43:32;;;;;;;28.83;13.25;;;;;;;14.43;18.79;100133.41;8441290;28;20051;-70
2022/03/13 15:47:33;;;;;;;27.90;12.35;;;;;;;13.82;19.36;100134.78;8437468;28;20052;-69
2022/03/13 15:51:34;;;;;;;30.80;13.07;;;;;;;13.34;20.24;100139.06;8437899;28;20051;-70
2022/03/13 15:55:35;;;;;;;25.45;11.60;;;;;;;12.84;20.65;100129.97;8438371;28;20047;-76
2022/03/13 15:59:37;;;;;;;29.27;12.35;;;;;;;12.48;21.43;100144.09;8449145;28;20088;-73
2022/03/13 16:03:38;;;;;;;27.33;12.32;;;;;;;12.21;21.58;100139.38;8459193;28;20043;-72
2022/03/13 16:07:41;;;;;;;27.58;12.25;;;;;;;11.95;21.76;100146.25;8454852;28;20044;-72
2022/03/13 16:11:43;;;;;;;22.33;10.25;;;;;;;11.60;22.13;100149.41;8471622;27;20044;-69
2022/03/13 16:15:44;;;;;;;23.23;10.52;;;;;;;11.22;22.50;100146.59;8474234;27;20047;-73
2022/03/13 16:19:49;;;;;;;18.17;8.65;;;;;;;10.82;22.74;100133.53;8462299;28;20085;-69
2022/03/13 16:23:51;;;;;;;26.85;11.15;;;;;;;10.61;23.01;100132.09;8436263;27;20039;-69
2022/03/13 16:27:53;;;;;;;25.00;10.63;;;;;;;10.40;22.79;100137.69;8470003;27;20429;-70
2022/03/13 16:31:54;;;;;;;80.93;30.80;;;;;;;10.12;23.55;100136.50;8448355;27;20498;-72
2022/03/13 16:35:55;;;;;;;39.70;15.65;;;;;;;9.91;23.33;100134.22;8458213;28;20149;-69
2022/03/13 16:39:56;;;;;;;17.20;8.38;;;;;;;9.67;23.51;100140.28;8458949;28;20042;-68
2022/03/13 16:43:57;;;;;;;19.63;8.13;;;;;;;9.33;23.76;100139.34;8459371;28;20681;-68
2022/03/13 16:47:58;;;;;;;21.80;7.95;;;;;;;9.13;23.88;100144.81;8481511;27;20816;-68
2022/03/13 16:51:59;;;;;;;18.70;8.27;;;;;;;8.95;24.17;100148.88;8460768;28;20046;-68
2022/03/13 16:56:00;;;;;;;16.27;7.78;;;;;;;8.78;23.98;100148.34;8454782;28;20051;-68
2022/03/13 17:00:01;;;;;;;19.67;8.20;;;;;;;8.56;24.41;100140.59;8452666;28;20048;-69
2022/03/13 17:04:04;;;;;;;23.75;9.57;;;;;;;8.38;24.86;100149.19;8473093;27;20066;-69
2022/03/13 17:08:05;;;;;;;38.63;14.02;;;;;;;8.21;24.86;100159.38;8459104;28;20048;-68
2022/03/13 17:12:07;;;;;;;74.10;24.58;;;;;;;8.10;24.96;100152.34;8456627;27;20101;-69
2022/03/13 17:16:08;;;;;;;44.25;16.95;;;;;;;7.95;25.07;100156.63;8459661;28;20721;-68
2022/03/13 17:20:10;;;;;;;41.67;16.98;;;;;;;7.76;25.40;100163.59;8458127;28;20495;-68
2022/03/13 17:24:11;;;;;;;24.55;9.63;;;;;;;7.69;25.64;100165.72;8456258;28;20047;-68
2022/03/13 17:28:12;;;;;;;21.70;9.63;;;;;;;7.55;25.59;100167.28;8454433;28;20127;-71
2022/03/13 17:32:13;;;;;;;21.10;9.07;;;;;;;7.42;26.22;100181.19;8450350;28;20044;-68
2022/03/13 17:36:15;;;;;;;22.33;8.82;;;;;;;7.31;26.36;100176.81;8466737;28;20474;-66
2022/03/13 17:40:16;;;;;;;25.98;9.45;;;;;;;7.28;26.37;100171.97;8463754;27;20055;-68
2022/03/13 17:44:17;;;;;;;22.00;9.18;;;;;;;7.12;26.85;100185.34;8454315;28;20545;-67
2022/03/13 17:48:18;;;;;;;24.00;10.38;;;;;;;7.10;26.74;100187.47;8439706;28;20521;-68
2022/03/13 17:52:19;;;;;;;26.20;10.95;;;;;;;7.02;27.25;100179.91;8453618;27;20093;-71
2022/03/13 17:56:20;;;;;;;27.67;11.18;;;;;;;6.87;27.63;100181.69;8461099;28;20040;-70
2022/03/13 18:00:22;;;;;;;28.83;12.27;;;;;;;6.75;27.80;100179.16;8448183;28;20043;-69
2022/03/13 18:04:23;;;;;;;28.23;11.95;;;;;;;6.71;28.35;100183.44;8462466;28;20052;-70
2022/03/13 18:08:25;;;;;;;28.27;12.13;;;;;;;6.57;28.35;100183.06;8413124;28;20048;-70
2022/03/13 18:12:26;;;;;;;34.92;12.77;;;;;;;6.64;28.20;100182.84;8453651;27;20071;-70
2022/03/13 18:16:27;;;;;;;30.95;13.05;;;;;;;6.64;28.23;100182.84;8449924;27;20085;-68
2022/03/13 18:20:28;;;;;;;44.50;15.75;;;;;;;6.55;28.47;100189.75;8475303;27;20067;-70
2022/03/13 18:24:29;;;;;;;32.63;13.02;;;;;;;6.47;28.65;100198.25;8466798;27;20127;-68